Tiempo atmosférico en la estación meteorológica de Calatayud, Zaragoza (600 m.)



Fecha
DESCASC
Temp. máxima en grados centígrados (hora)
DESCASC
Temp. mínima en grados centígrados (hora)
DESCASC
Temp. media en grados centígrados
DESCASC
Racha de viento máxima en m/sg (hora)
DESCASC
Velocidad máxima media en intervalos de 10 minutos(hora)
DESCASC
Precipitaciones diarias en mm
DESCASC
Precipitaciones de 00:00 a 06:00 en mm
DESCASC
Precipitaciones de 06:00 a 12:00 en mm
DESCASC
Precipitaciones de 12:00 a 18:00 en mm
DESCASC
Precipitaciones de 18:00 a 24:00 en mm
DESCASC
13-10-2019 29.8 (17:10) 12.6 (08:40) 21.2 11.11 (16:30) 6.11 (16:30) 0 0 0 0 0
12-10-2019 27.4 (16:00) 16.7 (08:30) 22.1 9.44 (23:50) 5.28 (23:50) 0 0 0 0 0
10-10-2019 23.6 (16:30) 7.9 (00:00) 15.8 7.22 (18:20) 4.72 (18:20) 0 0 0 0 0
09-10-2019 23.4 (14:40) 10.8 (00:00) 17.1 11.67 (21:20) 7.5 (17:00) 0 0 0 0 0
08-10-2019 31.7 (17:00) 10.3 (00:00) 21 5.83 (20:00) 4.17 (20:00) 0 0 0 0 0
07-10-2019 28.7 (17:20) 8.9 (00:00) 18.8 8.61 (17:50) 5.28 (17:50) 0 0 0 0 0
06-10-2019 26.3 (17:10) 8.4 (00:00) 17.3 12.5 (19:30) 7.78 (19:30) 0 0 0 0 0
05-10-2019 29.4 (18:00) 10 (08:00) 19.7 7.78 (19:10) 5.28 (19:10) 0 0 0 0 0
04-10-2019 29 (16:10) 8.3 (00:00) 18.7 8.89 (22:10) 5.28 (19:00) 0 0 0 0 0
03-10-2019 28.4 (16:50) 7.8 (00:00) 18.1 9.17 (17:40) 6.11 (17:50) 0 0 0 0 0
02-10-2019 23.3 (16:40) 13.1 (00:00) 18.2 8.89 (17:00) 5.83 (16:50) 0 0 0 0 0
01-10-2019 28.4 (15:20) 9.6 (00:00) 19 11.39 (17:00) 6.94 (16:00) 0 0 0 0 0
30-09-2019 32.3 (17:50) 10.1 (00:00) 21.2 5 (18:50) 2.78 (18:50) 0 0 0 0 0
29-09-2019 32.1 (17:40) 9.2 (00:00) 20.6 8.89 (16:50) 5.56 (16:40) 0 0 0 0 0
28-09-2019 29.7 (18:00) 9.2 (00:00) 19.5 5.28 (16:50) 3.61 (19:20) 0 0 0 0 0
27-09-2019 30.4 (17:40) 12 (00:00) 21.2 7.22 (15:50) 4.17 (19:40) 0 0 0 0 0
26-09-2019 30.3 (17:30) 10.3 (00:00) 20.3 8.06 (18:10) 4.44 (17:40) 0 0 0 0 0
25-09-2019 24.7 (17:00) 15.1 (00:00) 19.9 8.06 (17:40) 4.17 (15:20) 0 0 0 0 0
24-09-2019 29.1 (17:20) 12 (00:00) 20.6 10.28 (15:20) 6.39 (15:20) 0 0 0 0 0
23-09-2019 25.4 (18:40) 10.2 (00:00) 17.8 6.39 (15:30) 3.89 (18:50) 0 0 0 0 0
22-09-2019 23.8 (18:00) 14.8 (00:00) 19.3 9.17 (16:50) 5.56 (16:50) 1.4 0 1.2 0.2 0
21-09-2019 27.1 (15:50) 16.1 (00:00) 21.6 12.22 (16:10) 5.28 (16:10) 0 0 0 0 0
20-09-2019 28.1 (16:10) 13.7 (00:00) 20.9 11.11 (18:20) 5.28 (18:30) 0.8 0 0 0 0.8
19-09-2019 29.1 (17:40) 13.3 (00:00) 21.2 7.22 (18:10) 4.44 (18:50) 0.2 0 0 0 0.2
18-09-2019 24.1 (19:40) 13.2 (00:00) 18.7 5.28 (01:20) 3.33 (01:20) 2.4 2.4 0 0 0
17-09-2019 30.4 (17:10) 15.7 (00:00) 23 13.61 (22:40) 6.39 (22:30) 3 0 0 0 3

Gráficas

Temp. máximas Temp. mínimas Temp. medias Precipitaciones Rachas de viento máximas Velocidades máximas media en intervalos de 10 minutos

Datos horarios

Fecha y hora oficial Temperatura (ºC) Velocidad del viento (km/h) Dirección del viento Racha (km/h) Dirección de racha Precipitación (mm) Presión (hPa) Tendencia (hPa) Humedad (%)
2019-10-16 23:00:00 16.2 9 Sudoeste 18 Sudoeste 0 950.2 1.3 42
2019-10-16 22:00:00 16.6 9 Sudoeste 23 Sudoeste 0 949.9 2 42
2019-10-16 21:00:00 17 14 Sudoeste 27 Sudoeste 0 949.2 1.1 40
2019-10-16 20:00:00 17.8 10 Sudoeste 21 Sudoeste 0 948.9 0.4 37
2019-10-16 19:00:00 20.4 13 Oeste 28 Oeste 0 947.9 -1.2 31
2019-10-16 18:00:00 21.7 16 Oeste 32 Oeste 0 948.1 -1.8 29
2019-10-16 17:00:00 21.7 17 Oeste 31 Oeste 0 948.5 -2.2 28
2019-10-16 16:00:00 20.1 12 Oeste 26 Oeste 0 949.1 -2.5 31
2019-10-16 15:00:00 20.3 9 Oeste 27 Oeste 0 949.9 -2.2 30
2019-10-16 14:00:00 18.7 16 Oeste 31 Oeste 0 950.7 -1.8 34
2019-10-16 13:00:00 17.2 18 Oeste 33 Oeste 0 951.6 -1.1 37
2019-10-16 12:00:00 15.8 14 Sudoeste 27 Sudoeste 0 952.1 0 43
2019-10-16 11:00:00 12.1 9 Oeste 14 Oeste 0 952.5 0.8 54
2019-10-16 10:00:00 9.3 5 Sur 13 Sur 0 952.7 1.1 62
2019-10-16 09:00:00 8.3 9 Sur 14 Sur 0 952.1 0.5 65
2019-10-16 08:00:00 8.3 9 Sur 14 Sur 0 951.7 0.1 65
2019-10-16 07:00:00 8.5 8 Sur 15 Sur 0 951.6 -0.1 66
2019-10-16 06:00:00 8.1 6 Sur 11 Sur 0 951.6 -0.7 68
2019-10-16 05:00:00 9 5 Sudeste 9 Sudeste 0 951.6 -1 64
2019-10-16 04:00:00 8.9 3 Sudoeste 6 Nordeste 0 951.7 -1.2 64
2019-10-16 03:00:00 9.2 5 Nordeste 9 Sudeste 0 952.3 -0.7 65
2019-10-16 02:00:00 10.1 5 Sur 12 Sur 0 952.6 -0.2 57
2019-10-16 01:00:00 9.6 6 Sur 13 Sur 0 952.9 0.5 59
2019-10-16 00:00:00 10.6 8 Sur 13 Sur 0 953 1 55
2019-10-15 23:00:00 11.1 8 Sur 14 Sur 0 952.8 1.3 53
2019-10-15 22:00:00 12.4 8 Sur 11 Sur 0 952.4 1.5 49
2019-10-15 21:00:00 13.5 4 Sudoeste 8 Oeste 0 952 1.3 45
2019-10-15 20:00:00 14.5 6 Noroeste 23 Noroeste 0 951.5 0.8 42
2019-10-15 19:00:00 16.6 11 Oeste 29 Oeste 0 950.9 -0.1 36
2019-10-15 18:00:00 17.6 16 Oeste 35 Oeste 0 950.7 -0.8 32
2019-10-15 17:00:00 17.5 21 Oeste 36 Oeste 0 950.7 -1.1 32
2019-10-15 16:00:00 17.4 16 Sudoeste 36 Oeste 0 951 -1.5 35
2019-10-15 15:00:00 16.1 23 Oeste 38 Sudoeste 0 951.5 -1.1 36
2019-10-15 14:00:00 15 24 Oeste 37 Oeste 0 951.8 -0.6 41
2019-10-15 13:00:00 13 18 Oeste 36 Oeste 0 952.5 0.5 47
2019-10-15 12:00:00 11.9 13 Oeste 32 Oeste 0 952.6 1.4 53
2019-10-15 11:00:00 11 14 Oeste 27 Oeste 0 952.4 2.1 56
2019-10-15 10:00:00 9.9 16 Oeste 30 Oeste 0 952 2.2 61
2019-10-15 09:00:00 8.6 4 Oeste 18 Oeste 0 951.2 1.6 66
2019-10-15 08:00:00 8.4 14 Oeste 32 Oeste 0 950.3 1.4 68
2019-10-15 07:00:00 9.3 18 Oeste 36 Oeste 0 949.8 1 64
2019-10-15 06:00:00 10 5 Oeste 33 Sudoeste 0 949.6 0.6 61
2019-10-15 05:00:00 9.5 17 Oeste 45 Oeste 0 948.9 0.5 63
2019-10-15 04:00:00 9.8 18 Oeste 41 Oeste 0 948.8 0.6 62
2019-10-15 03:00:00 9.8 18 Oeste 39 Sudoeste 0 949 1.2 62
2019-10-15 02:00:00 9.3 11 Sudoeste 18 Sudoeste 0 948.4 1.6 78
2019-10-15 01:00:00 9.2 4 Norte 6 Nordeste 0 948.2 1.1 82
2019-10-15 00:00:00 9.7 3 Noroeste 18 Sur 0 947.8 1.1 80
2019-10-14 23:00:00 10.2 9 Sur 17 Sudoeste 0 946.8 3.3 77
2019-10-14 22:00:00 10.3 7 Sudoeste 51 Oeste 0 947.1 4.1 77
2019-10-14 21:00:00 12.9 29 Oeste 59 Noroeste 0 946.7 4.4 54
2019-10-14 20:00:00 18.5 19 Sudoeste 43 Sudoeste 0 943.5 1.2 36
2019-10-14 19:00:00 20.2 26 Sudoeste 49 Sudoeste 0 943 0.2 32
2019-10-14 18:00:00 21.7 24 Sudoeste 42 Sudoeste 0 942.3 -0.2 36
2019-10-14 17:00:00 22.1 23 Sudoeste 50 Sudoeste 0 942.3 -1 43
2019-10-14 16:00:00 20.4 30 Sudoeste 54 Oeste 0 942.8 -1.5 46
2019-10-14 15:00:00 19 10 Sudoeste 40 Sur 1 942.5 -2.5 67
2019-10-14 14:00:00 21.8 23 Sur 50 Sur 0 943.3 -2.1 44
2019-10-14 13:00:00 23.1 23 Sur 48 Sur 0 944.3 -0.2 40
2019-10-14 12:00:00 19.8 21 Sur 42 Sur 0.2 945 1.4 52
2019-10-14 11:00:00 18.7 22 Sur 48 Sur 0 945.4 1.7 60
2019-10-14 10:00:00 15 2 Sudoeste 8 Noroeste 0 944.5 1 70
2019-10-14 09:00:00 14.5 6 Nordeste 12 Nordeste 0 943.6 -0.2 71
2019-10-14 08:00:00 13.4 3 Oeste 11 Oeste 0 943.7 -0.2 70
2019-10-14 07:00:00 13 5 Norte 11 Este 0 943.5 -1.5 65
2019-10-14 06:00:00 12.6 5 Oeste 9 Oeste 0 943.8 -2.2 64
2019-10-14 05:00:00 12.2 4 Noroeste 8 Oeste 0 943.9 -2.6 55
2019-10-14 04:00:00 12.4 3 Norte 8 Oeste 0 945 -2 53
2019-10-14 03:00:00 13.1 4 Oeste 8 Oeste 0 946 -1.2 49
2019-10-14 02:00:00 13.2 4 Sudoeste 9 Oeste 0 946.5 -0.7 48
2019-10-14 01:00:00 14.3 3 Oeste 9 Oeste 0 947 0 45
2019-10-14 00:00:00 15.9 3 Nordeste 9 Norte 0 947.2 0.5 38
2019-10-13 23:00:00 17.2 2 Norte 7 Nordeste 0 947.2 0.7 35
2019-10-13 22:00:00 19.1 0 Calma 12 Sur 0 947 0.8 31
2019-10-13 21:00:00 21.3 2 Sudeste 4 Este 0 946.7 0.4 27
2019-10-13 20:00:00 24.5 3 Sur 13 Oeste 0 946.5 0 21
2019-10-13 19:00:00 27.3 8 Oeste 27 Oeste 0 946.2 -0.4 19
2019-10-13 18:00:00 28.4 17 Oeste 34 Sudoeste 0 946.3 -0.7 18
2019-10-13 17:00:00 29 16 Sudoeste 40 Sudoeste 0 946.5 -1.4 18
2019-10-13 16:00:00 28.7 18 Sudoeste 37 Sudoeste 0 946.6 -2.1 19
2019-10-13 15:00:00 28.7 16 Sudoeste 35 Sudoeste 0 947 -2.4 22
2019-10-13 14:00:00 26.6 4 Este 12 Sudoeste 0 947.9 -1.6 36
2019-10-13 13:00:00 24.8 3 Noroeste 13 Oeste 0 948.7 -0.4 41
2019-10-13 12:00:00 22 6 Oeste 12 Noroeste 0 949.4 0.7 50
2019-10-13 11:00:00 17 2 Noroeste 6 Oeste 0 949.5 1.3 69
2019-10-13 10:00:00 14.4 2 Sudeste 6 Sudoeste 0 949.1 1.1 71
2019-10-13 09:00:00 13.1 3 Oeste 8 Sudoeste 0 948.7 1.1 73
2019-10-13 08:00:00 13.4 0 Calma 6 Oeste 0 948.2 0.5 73
2019-10-13 07:00:00 13.8 4 Norte 14 Oeste 0 948 -0.3 71
2019-10-13 06:00:00 14.9 5 Sudeste 9 Sudeste 0 947.6 -1.3 64
2019-10-13 05:00:00 15.7 5 Noroeste 10 Nordeste 0 947.7 -1.7 62
2019-10-13 04:00:00 16.7 5 Nordeste 9 Norte 0 948.3 -1.7 57
2019-10-13 03:00:00 17.6 5 Nordeste 8 Nordeste 0 948.9 -1.4 55
2019-10-13 02:00:00 19.2 4 Este 21 Noroeste 0 949.4 0.7 50
2019-10-13 01:00:00 20.5 9 Oeste 22 Oeste 0 950 2.2 43
2019-10-13 00:00:00 20.1 13 Sudoeste 34 Sudoeste 0 950.3 2.7 52
2019-10-12 23:00:00 20.5 5 Noroeste 10 Este 0 948.7 1.1 59
2019-10-12 22:00:00 20.8 5 Este 15 Sudoeste 0 947.8 0.4 58
2019-10-12 21:00:00 22 6 Sudoeste 8 Sudoeste 0 947.6 0.3 53
2019-10-12 20:00:00 23.4 3 Noroeste 17 Nordeste 0 947.6 0.2 48
2019-10-12 19:00:00 24.2 6 Norte 21 Nordeste 0 947.4 -0.3 46
2019-10-12 18:00:00 24.7 8 Nordeste 17 Nordeste 0 947.3 -1.2 46
2019-10-12 17:00:00 25.8 13 Norte 19 Nordeste 0 947.4 -2.2 43
2019-10-12 16:00:00 27.4 11 Norte 19 Nordeste 0 947.7 -2.7 36
2019-10-12 15:00:00 27 11 Norte 18 Nordeste 0 948.5 -2.5 35
2019-10-12 14:00:00 25.5 6 Norte 12 Norte 0 949.6 -1.1 36
2019-10-12 13:00:00 25.1 3 Sudoeste 10 Nordeste 0 950.4 0.2 41
2019-10-12 12:00:00 22.8 5 Sudoeste 10 Oeste 0 951 1.2 50
2019-10-12 11:00:00 20.7 3 Noroeste 8 Nordeste 0 950.7 1.1 59
2019-10-12 10:00:00 18.4 2 Nordeste 8 Sur 0 950.2 0.7 67
2019-10-12 09:00:00 17.2 5 Sudeste 9 Oeste 0 949.8 0.2 69
2019-10-12 08:00:00 17.3 0 Calma 8 Oeste 0 949.6 0 69
2019-10-12 07:00:00 17.1 5 Oeste 8 Noroeste 0 949.5 -0.4 69
2019-10-12 06:00:00 17.2 3 Sur 6 Sudeste 0 949.6 -0.4 68
2019-10-12 05:00:00 17.7 4 Nordeste 7 Nordeste 0 949.6 -0.1 66
2019-10-12 04:00:00 17.7 3 Noroeste 10 Sudoeste 0 949.9 -0.7 65
2019-10-12 03:00:00 17.7 2 Sudoeste 12 Sudoeste 0 950 -0.7 65
2019-10-12 02:00:00 17.7 4 Este 11 Nordeste 0 949.7 -0.8 64
2019-10-12 01:00:00 18.3 5 Sur 10 Sur 0 950.6 0.9 61
2019-10-12 00:00:00 19.6 3 Oeste 7 Sur 0 950.7 1.5 57
2019-10-11 23:00:00 20 4 Sur 11 Sudoeste 0 950.5 1.6 56
2019-10-11 22:00:00 21.9 6 Nordeste 14 Nordeste 0 949.7 0.9 50
2019-10-11 21:00:00 23.5 11 Nordeste 16 Nordeste 0 949.2 0.4 44
2019-10-11 20:00:00 24.6 4 Nordeste 15 Nordeste 0 948.9 -0.1 43
2019-10-11 19:00:00 26.9 11 Nordeste 21 Nordeste 0 948.8 -1 37
2019-10-11 18:00:00 27.9 14 Nordeste 23 Nordeste 0 948.8 -1.9 34
2019-10-11 17:00:00 29.7 9 Nordeste 19 Norte 0 949 -3.1 29
2019-10-11 16:00:00 28.9 6 Norte 12 Norte 0 949.8 -3.6 31
2019-10-11 15:00:00 27.3 4 Nordeste 11 Norte 0 950.7 -3.3 36
2019-10-11 14:00:00 24.9 4 Nordeste 9 Nordeste 0 952.1 -2.4 42
2019-10-11 13:00:00 22.1 4 Noroeste 8 Oeste 0 953.4 -1 50
2019-10-11 12:00:00 18.4 3 Oeste 6 Oeste 0 954 0.2 56
2019-10-11 11:00:00 13.7 2 Oeste 5 Oeste 0 954.5 0.9 65
2019-10-11 10:00:00 10.5 2 Oeste 4 Sudoeste 0 954.4 1 75
2019-10-11 09:00:00 8.9 3 Sur 6 Sur 0 953.8 0.5 78
2019-10-11 08:00:00 9.2 2 Nordeste 4 Este 0 953.6 0.3 76
2019-10-11 07:00:00 9.5 3 Este 4 Nordeste 0 953.4 0 74
2019-10-11 06:00:00 10 4 Nordeste 5 Nordeste 0 953.3 -0.4 73
2019-10-11 05:00:00 10.4 0 Calma 5 Sur 0 953.3 -0.3 73
2019-10-11 04:00:00 10.9 0 Calma 5 Sudoeste 0 953.4 -0.3 70
2019-10-11 03:00:00 11.6 0 Calma 8 Sur 0 953.7 0.1 68
2019-10-11 02:00:00 12.5 4 Sur 6 Nordeste 0 953.6 0.2 64
2019-10-11 01:00:00 12.4 4 Sudoeste 8 Sur 0 953.7 0.5 66
2019-10-11 00:00:00 14.7 0 Calma 7 Sudoeste 0 953.6 0.8 56
2019-10-10 23:00:00 15.7 3 Sudeste 10 Nordeste 0 953.4 1 50
2019-10-10 22:00:00 16.7 8 Nordeste 12 Nordeste 0 953.2 1.2 48
2019-10-10 21:00:00 17.8 3 Este 16 Nordeste 0 952.8 0.9 47
2019-10-10 20:00:00 18.9 12 Nordeste 23 Nordeste 0 952.4 0.3 45
2019-10-10 19:00:00 21.2 13 Nordeste 26 Nordeste 0 952 -0.6 39
2019-10-10 18:00:00 22.6 13 Norte 23 Nordeste 0 951.9 -1.5 37
2019-10-10 17:00:00 23.4 11 Norte 18 Norte 0 952.1 -2.3 37
2019-10-10 16:00:00 22.8 6 Este 14 Nordeste 0 952.6 -2.4 39
2019-10-10 15:00:00 21.8 5 Norte 14 Nordeste 0 953.4 -2.2 37
2019-10-10 14:00:00 20.1 6 Nordeste 14 Norte 0 954.4 -1.4 39
2019-10-10 13:00:00 18.8 4 Este 14 Norte 0 955 -0.9 41
2019-10-10 12:00:00 16.9 6 Nordeste 12 Nordeste 0 955.6 0.5 45
2019-10-10 11:00:00 13.9 3 Oeste 7 Oeste 0 955.8 1.3 60
2019-10-10 10:00:00 9.4 3 Sudoeste 7 Sudoeste 0 955.9 1.5 76
2019-10-10 09:00:00 8.3 2 Sudoeste 7 Nordeste 0 955.1 1 77
2019-10-10 08:00:00 8 5 Sudoeste 8 Sudoeste 0 954.5 0.4 79
2019-10-10 07:00:00 9.4 2 Noroeste 6 Sudoeste 0 954.4 0.2 74
2019-10-10 06:00:00 9.2 4 Sudoeste 9 Oeste 0 954.1 -0.4 75
2019-10-10 05:00:00 9.9 5 Oeste 10 Sur 0 954.1 -0.5 73
2019-10-10 04:00:00 10.8 4 Sudoeste 8 Este 0 954.2 -0.5 70
2019-10-10 03:00:00 11.8 3 Sudeste 7 Sudeste 0 954.5 0.2 61
2019-10-10 02:00:00 12.5 2 Norte 14 Nordeste 0 954.6 0.8 60
2019-10-10 01:00:00 13.4 8 Este 17 Nordeste 0 954.7 1.6 59
2019-10-10 00:00:00 14.1 7 Nordeste 28 Nordeste 0 954.3 2.1 57
2019-10-09 23:00:00 14.5 18 Nordeste 35 Nordeste 0 953.8 2.6 55
2019-10-09 22:00:00 15.4 23 Nordeste 42 Este 0 953.1 2.6 53
2019-10-09 21:00:00 16.4 22 Nordeste 38 Nordeste 0 952.2 2.1 51
2019-10-09 20:00:00 18.1 19 Nordeste 35 Nordeste 0 951.2 1 48
2019-10-09 19:00:00 20 20 Nordeste 37 Nordeste 0 950.5 0.1 46
2019-10-09 18:00:00 21 26 Nordeste 42 Nordeste 0 950.1 -0.4 46
2019-10-09 17:00:00 21.8 27 Nordeste 41 Nordeste 0 950.2 -0.7 45
2019-10-09 16:00:00 22.4 23 Nordeste 40 Nordeste 0 950.4 -1 45
2019-10-09 15:00:00 23.4 14 Nordeste 24 Nordeste 0 950.5 -1.4 43
2019-10-09 14:00:00 22.5 13 Nordeste 25 Nordeste 0 950.9 -1.1 47
2019-10-09 13:00:00 21.8 12 Norte 23 Norte 0 951.4 0 49
2019-10-09 12:00:00 20.9 10 Nordeste 21 Nordeste 0 951.9 0.7 53
2019-10-09 11:00:00 17.1 4 Norte 9 Nordeste 0 952 1 59
2019-10-09 10:00:00 14 4 Noroeste 13 Sur 0 951.4 1.6 63
2019-10-09 09:00:00 11.9 4 Sur 9 Sur 0 951.2 1.5 68
2019-10-09 08:00:00 11.2 3 Oeste 6 Nordeste 0 951 1.4 69
2019-10-09 07:00:00 12 3 Nordeste 7 Sudeste 0 949.8 0.4 66
2019-10-09 06:00:00 12.1 3 Sudoeste 8 Este 0 949.7 0.2 66
2019-10-09 05:00:00 13.2 5 Sudoeste 8 Sur 0 949.6 0 62
2019-10-09 04:00:00 14.1 3 Norte 6 Este 0 949.4 -0.4 58
2019-10-09 03:00:00 15.1 2 Oeste 5 Noroeste 0 949.5 -0.2 55
2019-10-09 02:00:00 15.6 3 Sudeste 10 Sur 0 949.6 0.1 50
2019-10-09 01:00:00 14.9 6 Sudoeste 9 Sur 0 949.8 0.7 57
2019-10-09 00:00:00 17.9 4 Sudeste 8 Sudoeste 0 949.7 1 47
2019-10-08 23:00:00 20.7 3 Sudoeste 16 Nordeste 0 949.5 1.5 38
2019-10-08 22:00:00 22.6 12 Nordeste 21 Este 0 949.1 1.5 33
2019-10-08 21:00:00 23.6 3 Nordeste 20 Nordeste 0 948.7 0.9 27
2019-10-08 20:00:00 25.5 15 Nordeste 21 Nordeste 0 948 -0.1 24
2019-10-08 19:00:00 30.2 6 Nordeste 15 Nordeste 0 947.6 -1.1 22
2019-10-08 18:00:00 30.8 9 Nordeste 14 Nordeste 0 947.8 -1.7 21
2019-10-08 17:00:00 31.6 6 Sudoeste 12 Oeste 0 948.1 -2.5 20
2019-10-08 16:00:00 30.2 4 Noroeste 14 Sudoeste 0 948.7 -2.9 21
2019-10-08 15:00:00 28.9 4 Noroeste 12 Nordeste 0 949.5 -3 23
2019-10-08 14:00:00 26.7 3 Norte 9 Sudoeste 0 950.6 -2.3 27
2019-10-08 13:00:00 23.3 5 Norte 10 Nordeste 0 951.6 -1.6 31
2019-10-08 12:00:00 20.3 4 Norte 9 Nordeste 0 952.5 -0.4 36
2019-10-08 11:00:00 16.3 3 Noroeste 6 Este 0 952.9 0.6 47
2019-10-08 10:00:00 12.5 3 Sudoeste 7 Sudoeste 0 953.2 1 59
2019-10-08 09:00:00 10.4 0 Calma 7 Nordeste 0 952.9 0.8 64
2019-10-08 08:00:00 10.7 0 Calma 4 Sudeste 0 952.3 0 61
2019-10-08 07:00:00 11.3 0 Calma 6 Sudoeste 0 952.2 -0.1 61
2019-10-08 06:00:00 12.2 3 Este 9 Nordeste 0 952.1 -0.5 54
2019-10-08 05:00:00 12.6 2 Sudeste 8 Sur 0 952.3 0 55
2019-10-08 04:00:00 13 4 Oeste 8 Sudoeste 0 952.3 0 53
2019-10-08 03:00:00 14.1 4 Nordeste 11 Nordeste 0 952.6 0.2 49
2019-10-08 02:00:00 15 4 Norte 12 Sudeste 0 952.3 -0.1 47
2019-10-08 01:00:00 16 4 Sur 8 Sur 0 952.3 0.3 42
2019-10-08 00:00:00 17 3 Noroeste 13 Sur 0 952.4 0.9 39
2019-10-07 23:00:00 18.2 4 Sudoeste 9 Sur 0 952.4 1.7 35
2019-10-07 22:00:00 19.8 5 Sudoeste 15 Nordeste 0 952 1.9 31
2019-10-07 21:00:00 20.9 7 Este 21 Nordeste 0 951.5 1.6 28
2019-10-07 20:00:00 23.1 14 Nordeste 23 Nordeste 0 950.7 0.9 28
2019-10-07 19:00:00 25.7 13 Nordeste 28 Nordeste 0 950.1 -0.2 32
2019-10-07 18:00:00 27.1 18 Nordeste 31 Nordeste 0 949.9 -0.7 29
2019-10-07 17:00:00 28.6 12 Norte 22 Norte 0 949.8 -1.4 27
2019-10-07 16:00:00 27.6 10 Nordeste 19 Nordeste 0 950.3 -1.5 23
2019-10-07 15:00:00 25.4 10 Nordeste 24 Nordeste 0 950.6 -1.6 21
2019-10-07 14:00:00 24.7 9 Nordeste 17 Norte 0 951.2 -1.5 21
2019-10-07 13:00:00 23.3 4 Este 16 Sudoeste 0 951.8 -1.4 25
2019-10-07 12:00:00 20.3 6 Oeste 16 Oeste 0 952.2 -0.7 37
2019-10-07 11:00:00 16.2 6 Sudoeste 14 Sur 0 952.7 0.2 57
2019-10-07 10:00:00 11.6 4 Este 6 Este 0 953.2 0.9 80
2019-10-07 09:00:00 9 0 Calma 5 Nordeste 0 952.9 0.7 85
2019-10-07 08:00:00 9.1 5 Nordeste 6 Nordeste 0 952.5 0 85
2019-10-07 07:00:00 9.5 5 Nordeste 7 Nordeste 0 952.3 -0.4 83
2019-10-07 06:00:00 10 2 Sudoeste 7 Sur 0 952.2 -1 83
2019-10-07 05:00:00 9.7 6 Sur 14 Sur 0 952.5 -0.6 82
2019-10-07 04:00:00 11.6 6 Sur 10 Sur 0 952.7 -0.5 80
2019-10-07 03:00:00 12.7 5 Sur 6 Sur 0 953.2 -0.3 76
2019-10-07 02:00:00 13.4 4 Oeste 13 Nordeste 0 953.1 0 74
2019-10-07 01:00:00 14.6 5 Nordeste 13 Nordeste 0 953.2 0.6 70
2019-10-07 00:00:00 15.5 5 Nordeste 18 Nordeste 0 953.5 1.7 67
2019-10-06 23:00:00 16.3 13 Nordeste 25 Nordeste 0 953.1 2.1 64
2019-10-06 22:00:00 17 14 Nordeste 33 Nordeste 0 952.6 2.2 60
2019-10-06 21:00:00 17.8 21 Nordeste 37 Nordeste 0 951.8 1.8 59
2019-10-06 20:00:00 19.1 24 Nordeste 45 Nordeste 0 951 0.5 55
2019-10-06 19:00:00 21.6 22 Nordeste 41 Nordeste 0 950.4 -1 47
2019-10-06 18:00:00 24.8 13 Nordeste 18 Nordeste 0 950 -1.9 33
2019-10-06 17:00:00 26.2 3 Este 12 Este 0 950.5 -2.2 30
2019-10-06 16:00:00 24 5 Norte 9 Norte 0 951.4 -1.9 35
2019-10-06 15:00:00 23.5 6 Sudoeste 12 Sudoeste 0 951.9 -1.7 36
2019-10-06 14:00:00 21.4 3 Oeste 14 Norte 0 952.7 -1.1 42
2019-10-06 13:00:00 20.7 4 Nordeste 11 Norte 0 953.3 -0.2 46
2019-10-06 12:00:00 17.7 5 Norte 12 Noroeste 0 953.6 0.8 55
2019-10-06 11:00:00 14.2 4 Sudoeste 10 Nordeste 0 953.8 1.7 65
2019-10-06 10:00:00 11.2 6 Nordeste 13 Sur 0 953.5 2.1 76
2019-10-06 09:00:00 8.6 5 Sur 12 Sur 0 952.8 1.9 80
2019-10-06 08:00:00 9.4 0 Calma 5 Sudoeste 0 952.1 1 81
2019-10-06 07:00:00 9.9 4 Este 6 Sur 0 951.4 0.9 79
2019-10-06 06:00:00 10.3 4 Sudoeste 8 Sudeste 0 950.9 -0.2 76
2019-10-06 05:00:00 11.2 0 Calma 6 Norte 0 951.1 0.6 75
2019-10-06 04:00:00 12.4 3 Nordeste 6 Este 0 950.5 0 72
2019-10-06 03:00:00 13.3 2 Este 7 Sudeste 0 951.1 0.8 68
2019-10-06 02:00:00 14.1 0 Calma 4 Nordeste 0 950.5 0.4 65
2019-10-06 01:00:00 15.3 3 Nordeste 8 Sudeste 0 950.5 1 63
2019-10-06 00:00:00 16.1 6 Sur 10 Sur 0 950.3 1.6 60
2019-10-05 23:00:00 18 4 Nordeste 11 Sur 0 950.1 2.2 53
2019-10-05 22:00:00 19.7 6 Sudeste 10 Sudeste 0 949.5 2.1 47
2019-10-05 21:00:00 20.9 6 Este 24 Nordeste 0 948.7 1.6 44
2019-10-05 20:00:00 22.8 15 Nordeste 28 Nordeste 0 947.9 0.7 41
2019-10-05 19:00:00 25.5 16 Nordeste 25 Nordeste 0 947.4 -0.4 36
2019-10-05 18:00:00 29.4 4 Noroeste 18 Sudoeste 0 947.1 -1 22
2019-10-05 17:00:00 28.9 8 Sur 16 Sudoeste 0 947.2 -1.7 25
2019-10-05 16:00:00 28.2 8 Sudoeste 20 Oeste 0 947.8 -2 23
2019-10-05 15:00:00 26.8 6 Sudoeste 16 Oeste 0 948.1 -2.2 29
2019-10-05 14:00:00 24.8 5 Noroeste 12 Oeste 0 948.9 -1.9 38
2019-10-05 13:00:00 21.8 4 Sudoeste 12 Oeste 0 949.8 -0.8 48
2019-10-05 12:00:00 18.8 4 Oeste 12 Noroeste 0 950.3 0.2 58
2019-10-05 11:00:00 15.6 3 Sudeste 6 Sudeste 0 950.8 1.1 69
2019-10-05 10:00:00 11.6 3 Sudoeste 5 Sudoeste 0 950.6 1 84
2019-10-05 09:00:00 10.3 2 Nordeste 5 Oeste 0 950.1 0.5 87
2019-10-05 08:00:00 10 3 Sudoeste 5 Oeste 0 949.7 0 86
2019-10-05 07:00:00 10.9 2 Este 4 Sudoeste 0 949.6 -0.4 84
2019-10-05 06:00:00 11.7 4 Este 8 Sudeste 0 949.6 -0.6 82
2019-10-05 05:00:00 12.3 3 Sur 9 Sur 0 949.7 -0.2 80
2019-10-05 04:00:00 13.8 3 Sudeste 10 Sudeste 0 950 0.2 78
2019-10-05 03:00:00 14.5 5 Nordeste 11 Este 0 950.2 0.5 74
2019-10-05 02:00:00 15.4 3 Este 8 Sudeste 0 949.9 0.4 70
2019-10-05 01:00:00 16.3 4 Sudoeste 5 Sudoeste 0 949.8 0.9 68
2019-10-05 00:00:00 17.4 5 Nordeste 26 Nordeste 0 949.7 1.4 63
2019-10-04 23:00:00 18.5 14 Nordeste 32 Nordeste 0 949.5 2 62
2019-10-04 22:00:00 20.4 18 Nordeste 30 Nordeste 0 948.9 2 55
2019-10-04 21:00:00 21.3 10 Nordeste 24 Nordeste 0 948.3 1.7 49
2019-10-04 20:00:00 22.4 15 Nordeste 28 Nordeste 0 947.5 0.7 46
2019-10-04 19:00:00 24.6 19 Nordeste 29 Nordeste 0 946.9 -0.8 39
2019-10-04 18:00:00 26.5 16 Nordeste 26 Nordeste 0 946.6 -2.2 32
2019-10-04 17:00:00 27.5 14 Nordeste 27 Nordeste 0 946.8 -3 29
2019-10-04 16:00:00 28.6 7 Oeste 14 Oeste 0 947.7 -3 21
2019-10-04 15:00:00 26 6 Nordeste 15 Nordeste 0 948.8 -2.7 26
2019-10-04 14:00:00 24 5 Norte 10 Norte 0 949.8 -2 29
2019-10-04 13:00:00 21.4 4 Norte 11 Nordeste 0 950.7 -1.4 35
2019-10-04 12:00:00 18.3 4 Noroeste 10 Norte 0 951.5 -0.4 42
2019-10-04 11:00:00 14.8 3 Oeste 7 Sudoeste 0 951.8 0.3 54
2019-10-04 10:00:00 10.7 3 Sudoeste 6 Sudoeste 0 952.1 0.6 69
2019-10-04 09:00:00 8.7 0 Calma 6 Noroeste 0 951.9 0.4 75
2019-10-04 08:00:00 8.4 3 Sudeste 5 Sudeste 0 951.5 0.1 73
2019-10-04 07:00:00 8.6 4 Sudoeste 8 Sudoeste 0 951.5 -0.1 75
2019-10-04 06:00:00 9.8 3 Sudeste 4 Sudeste 0 951.5 -0.2 68
2019-10-04 05:00:00 10.5 3 Norte 8 Sur 0 951.4 -0.2 67
2019-10-04 04:00:00 11.5 5 Sudeste 13 Sur 0 951.6 0 63
2019-10-04 03:00:00 11.8 2 Este 19 Sur 0 951.7 0.2 62
2019-10-04 02:00:00 12.7 10 Sur 17 Sur 0 951.6 0.5 59
2019-10-04 01:00:00 12.8 9 Sur 12 Sur 0 951.6 1.1 60
2019-10-04 00:00:00 15.4 2 Este 8 Sudeste 0 951.5 1.4 50
2019-10-03 23:00:00 17.4 3 Este 5 Este 0 951.1 1.7 43
2019-10-03 22:00:00 18.7 4 Este 12 Este 0 950.5 1.6 38
2019-10-03 21:00:00 20.4 4 Este 19 Nordeste 0 950.1 1.6 33
2019-10-03 20:00:00 22.4 15 Nordeste 23 Nordeste 0 949.4 1.1 30
2019-10-03 19:00:00 24.2 17 Nordeste 32 Nordeste 0 948.9 0.2 28
2019-10-03 18:00:00 25.6 18 Nordeste 33 Nordeste 0 948.5 -0.7 26
2019-10-03 17:00:00 28.1 16 Oeste 26 Sudoeste 0 948.3 -1.8 18
2019-10-03 16:00:00 27.6 11 Sudoeste 21 Oeste 0 948.7 -2.4 22
2019-10-03 15:00:00 25.8 12 Sudoeste 22 Sudoeste 0 949.2 -2.8 28
2019-10-03 14:00:00 23.6 6 Sur 19 Sur 0 950.1 -2.4 33
2019-10-03 13:00:00 20.3 7 Sudoeste 16 Sudoeste 0 951.1 -1.4 42
2019-10-03 12:00:00 16.9 4 Nordeste 10 Oeste 0 952 0.1 50
2019-10-03 11:00:00 13.2 5 Oeste 8 Sudoeste 0 952.5 0.7 65
2019-10-03 10:00:00 9.2 0 Calma 4 Nordeste 0 952.5 1.1 80
2019-10-03 09:00:00 7.9 0 Calma -- -- -- 951.9 0.7 83
2019-10-03 08:00:00 8.2 4 Nordeste 6 Nordeste 0 951.8 0.6 83
2019-10-03 07:00:00 8.7 3 Este 9 Sudeste 0 951.4 -0.2 81
2019-10-03 06:00:00 9.4 0 Calma 10 Sur 0 951.2 -0.6 80
2019-10-03 05:00:00 9.9 4 Sur 7 Sur 0 951.2 -1 78
2019-10-03 04:00:00 10.5 0 Calma 16 Sur 0 951.6 -0.9 77
2019-10-03 03:00:00 11.6 12 Sur 19 Sur 0 951.8 -1.1 73
2019-10-03 02:00:00 10.9 10 Sur 17 Sur 0 952.2 -0.2 77
2019-10-03 01:00:00 12.7 8 Sur 12 Sur 0 952.5 0.6 71
2019-10-03 00:00:00 13.9 3 Nordeste 18 Este 0 952.9 1.6 67
2019-10-02 23:00:00 14.8 10 Este 16 Este 0 952.4 1.7 64
2019-10-02 22:00:00 16.1 4 Nordeste 20 Nordeste 0 951.9 1.5 55
2019-10-02 21:00:00 17.2 9 Nordeste 29 Nordeste 0 951.3 1.4 51
2019-10-02 20:00:00 18.5 19 Nordeste 31 Este 0 950.7 0.9 45
2019-10-02 19:00:00 20.4 18 Nordeste 32 Norte 0 950.4 0.6 39
2019-10-02 18:00:00 21.9 18 Nordeste 32 Nordeste 0 949.9 0.4 34
2019-10-02 17:00:00 22.4 20 Nordeste 32 Nordeste 0 949.8 -0.5 32
2019-10-02 16:00:00 21.6 14 Nordeste 29 Nordeste 0 949.8 -0.3 33
2019-10-02 15:00:00 21.9 14 Nordeste 26 Nordeste 0 949.5 -0.8 34
2019-10-02 14:00:00 21.5 8 Nordeste -- -- -- 950.3 -0.1 34
2019-10-02 13:00:00 20.2 16 Noroeste -- -- 0 950.1 0.1 37
2019-10-02 12:00:00 19.1 10 Oeste 23 Sudoeste 0 950.3 0.9 45
2019-10-02 11:00:00 16.9 12 Oeste 22 Oeste 0 950.4 1.4 51
2019-10-02 10:00:00 14.4 10 Sudoeste 20 Oeste 0 950 1.6 64
2019-10-02 09:00:00 13.2 12 Oeste 17 Oeste 0 949.4 1.2 67
2019-10-02 08:00:00 13.6 6 Oeste 10 Oeste 0 949 1 70
2019-10-02 07:00:00 14.2 4 Sur 9 Sudoeste 0 948.4 0.4 71
2019-10-02 06:00:00 13.8 3 Sudoeste 7 Oeste 0 948.2 0.4 74
2019-10-02 05:00:00 14.3 2 Sudoeste 9 Noroeste 0 948 0.4 72
2019-10-02 04:00:00 14.1 4 Noroeste 11 Nordeste 0 948 0.7 72
2019-10-02 03:00:00 15 6 Nordeste 11 Este 0 947.8 0.7 67
2019-10-02 02:00:00 16 7 Este 10 Nordeste 0 947.6 1.1 56
2019-10-02 01:00:00 18.1 3 Sur 12 Sudoeste 0 947.3 1.4 48
2019-10-02 00:00:00 19.2 9 Sudoeste 12 Sudoeste 0 947.1 1.6 44
2019-10-01 23:00:00 19.9 4 Oeste 8 Sudoeste 0 946.5 1.3 41
2019-10-01 22:00:00 21.2 6 Sudoeste 13 Oeste 0 945.9 1.5 38
2019-10-01 21:00:00 22.5 10 Oeste 31 Oeste 0 945.5 1.2 34
2019-10-01 20:00:00 24.2 18 Oeste 40 Oeste 0 945.2 0.7 30
2019-10-01 19:00:00 26.6 18 Oeste 34 Oeste 0 944.4 -0.5 23
2019-10-01 18:00:00 27.5 21 Oeste 39 Oeste 0 944.3 -0.5 24
2019-10-01 17:00:00 28.2 18 Oeste 41 Oeste 0 944.5 -1.1 21
2019-10-01 16:00:00 27.6 25 Oeste 39 Noroeste 0 944.9 -1.7 26
2019-10-01 15:00:00 28.3 15 Oeste -- -- 0 944.8 -2.2 26
2019-10-01 14:00:00 26.8 13 Sudoeste 25 Sudoeste 0 945.6 -2 29
2019-10-01 13:00:00 24.1 8 Sudoeste 17 Sudoeste 0 946.6 -0.5 31
2019-10-01 12:00:00 19.6 4 Este 8 Este 0 947 0.2 36
2019-10-01 11:00:00 15.2 3 Sur 7 Oeste 0 947.6 1 52
2019-10-01 10:00:00 12.2 3 Oeste 6 Sur 0 947.1 0.6 61
2019-10-01 09:00:00 9.8 3 Sur 5 Sudeste 0 946.8 0.4 68
2019-10-01 08:00:00 10.2 2 Norte 6 Este 0 946.6 -0.2 66
2019-10-01 07:00:00 10.9 0 Calma 7 Sur 0 946.5 -0.8 63
2019-10-01 06:00:00 11.5 3 Sur 6 Sur 0 946.4 -1.5 60
2019-10-01 05:00:00 12.3 4 Noroeste 6 Oeste 0 946.8 -1 58
2019-10-01 04:00:00 13.1 2 Norte 6 Noroeste 0 947.3 -0.6 56
2019-10-01 03:00:00 14.6 5 Sur 8 Sur 0 947.9 0 51
2019-10-01 02:00:00 15.8 2 Sur 13 Sur 0 947.8 0 48
2019-10-01 01:00:00 17.4 8 Sur 15 Sur 0 947.9 0.2 43
2019-10-01 00:00:00 18.2 8 Sur 12 Sur 0 947.9 0.9 42
2019-09-30 23:00:00 21.2 3 Sur 8 Sur 0 947.8 1.1 34
2019-09-30 22:00:00 22.5 5 Oeste 10 Sudeste 0 947.7 1 31
2019-09-30 21:00:00 25 6 Este 14 Nordeste 0 947 0.1 27
2019-09-30 20:00:00 29.3 6 Oeste 12 Oeste 0 946.7 -0.8 17
2019-09-30 19:00:00 31.5 9 Oeste 18 Oeste 0 946.7 -1.5 14
2019-09-30 18:00:00 31.7 6 Norte 12 Nordeste 0 946.9 -2.4 19
2019-09-30 17:00:00 31 8 Norte 14 Norte 0 947.5 -2.9 22
2019-09-30 16:00:00 30.4 5 Sudoeste 12 Oeste 0 948.2 -3 23
2019-09-30 15:00:00 28.4 6 Noroeste 12 Oeste 0 949.3 -2.8 27
2019-09-30 14:00:00 26.6 5 Noroeste 11 Oeste 0 950.4 -1.9 32
2019-09-30 13:00:00 24.3 3 Noroeste 9 Oeste 0 951.2 -1.1 36
2019-09-30 12:00:00 20.2 4 Norte 7 Nordeste 0 952.1 0.2 36
2019-09-30 11:00:00 16.2 4 Nordeste 6 Nordeste 0 952.3 0.9 46
2019-09-30 10:00:00 11.8 2 Noroeste 4 Noroeste 0 952.3 1.2 63
2019-09-30 09:00:00 10.3 0 Calma 4 Sudeste 0 951.9 0.8 67
2019-09-30 08:00:00 10.4 3 Este 6 Sur 0 951.4 0.3 63
2019-09-30 07:00:00 10.8 3 Sudoeste 6 Sur 0 951.1 -0.2 61
2019-09-30 06:00:00 11.8 0 Calma 4 Este 0 951.1 -0.3 57
2019-09-30 05:00:00 12.8 2 Oeste 5 Sudeste 0 951.1 0 54
2019-09-30 04:00:00 13.7 3 Este 6 Sudeste 0 951.3 0.4 52
2019-09-30 03:00:00 14.2 3 Este 9 Sur 0 951.4 0.7 51
2019-09-30 02:00:00 15.5 6 Nordeste 9 Sur 0 951.1 0.7 46
2019-09-30 01:00:00 17.2 2 Oeste 9 Nordeste 0 950.9 1 41
2019-09-30 00:00:00 18.9 4 Norte 14 Sur 0 950.7 1.6 37
2019-09-29 23:00:00 21.4 10 Sur 14 Sur 0 950.4 2 29
2019-09-29 22:00:00 24.2 6 Sur 12 Sur 0 949.9 1.6 24
2019-09-29 21:00:00 26 4 Sudoeste 10 Oeste 0 949.1 0.6 22
2019-09-29 20:00:00 28.8 8 Oeste 18 Oeste 0 948.4 -0.4 19
2019-09-29 19:00:00 31 11 Oeste 23 Oeste 0 948.3 -0.8 15
2019-09-29 18:00:00 31.6 16 Oeste 28 Sudoeste 0 948.5 -1.4 14
2019-09-29 17:00:00 31.5 17 Oeste 32 Oeste 0 948.8 -2 14
2019-09-29 16:00:00 30.9 19 Oeste -- -- 0 949.1 -2.3 15
2019-09-29 15:00:00 29.9 14 Oeste 29 Oeste 0 949.9 -2.1 19
2019-09-29 14:00:00 27.2 4 Sudoeste 13 Sudoeste 0 950.8 -1.3 29
2019-09-29 13:00:00 23.7 3 Sudoeste 9 Sudoeste 0 951.4 -0.6 38
2019-09-29 12:00:00 19.3 4 Norte 7 Nordeste 0 952 0 50
2019-09-29 11:00:00 14.8 2 Noroeste 6 Oeste 0 952.1 0.5 60
2019-09-29 10:00:00 11 0 Calma 5 Sudeste 0 952 0.7 73
2019-09-29 09:00:00 9.5 3 Nordeste 6 Norte 0 952 0.9 80
2019-09-29 08:00:00 9.7 2 Sur 8 Sur 0 951.6 0.4 79
2019-09-29 07:00:00 10.3 4 Sudeste 5 Sudeste 0 951.3 -0.3 77
2019-09-29 06:00:00 11.2 2 Este 4 Sudoeste 0 951.1 -0.7 76
2019-09-29 05:00:00 12 3 Sur 4 Sudoeste 0 951.2 -0.3 75
2019-09-29 04:00:00 12.7 3 Sudoeste 5 Sudeste 0 951.6 0 73
2019-09-29 03:00:00 13.9 0 Calma 4 Sudeste 0 951.8 0.2 69
2019-09-29 02:00:00 14.7 2 Sudeste 7 Sudoeste 0 951.5 0.1 66
2019-09-29 01:00:00 16.5 3 Sur 5 Sur 0 951.6 0.5 61
2019-09-29 00:00:00 17.8 3 Oeste 8 Oeste 0 951.6 1 58
2019-09-28 23:00:00 19.8 5 Oeste 9 Este 0 951.4 1.2 51
2019-09-28 22:00:00 21.9 3 Este 10 Este 0 951.1 1 43
2019-09-28 21:00:00 23.4 8 Este 13 Nordeste 0 950.6 0.4 40
2019-09-28 20:00:00 26.2 9 Nordeste 18 Este 0 950.2 -0.4 33
2019-09-28 19:00:00 28.7 10 Este 16 Nordeste 0 950.1 -1.2 25
2019-09-28 18:00:00 29.4 7 Nordeste 16 Nordeste 0 950.2 -2 21
2019-09-28 17:00:00 28.8 12 Nordeste 19 Nordeste 0 950.6 -2.7 23
2019-09-28 16:00:00 29 4 Noroeste 12 Nordeste 0 951.3 -2.7 21
2019-09-28 15:00:00 26.9 6 Norte 15 Norte 0 952.2 -2.6 25
2019-09-28 14:00:00 24.6 6 Noroeste 10 Oeste 0 953.3 -1.6 28
2019-09-28 13:00:00 21.9 4 Noroeste 10 Oeste 0 954 -0.7 38
2019-09-28 12:00:00 18.5 4 Nordeste 9 Norte 0 954.8 0.6 48
2019-09-28 11:00:00 14.7 3 Norte 6 Nordeste 0 954.9 1.1 58
2019-09-28 10:00:00 10.9 2 Sudoeste 4 Sudoeste 0 954.7 1 70
2019-09-28 09:00:00 9.2 0 Calma 7 Nordeste 0 954.2 0.7 76
2019-09-28 08:00:00 9.5 5 Norte 7 Sur 0 953.8 0.6 76
2019-09-28 07:00:00 10.2 0 Calma 7 Nordeste 0 953.7 0.5 72
2019-09-28 06:00:00 10.4 5 Sudoeste 6 Sur 0 953.5 0.3 73
2019-09-28 05:00:00 11.8 4 Este 6 Este 0 953.2 0.2 68
2019-09-28 04:00:00 12.3 3 Sudeste 8 Sur 0 953.2 0.4 66
2019-09-28 03:00:00 13.5 6 Sur 9 Sur 0 953.2 0.8 62
2019-09-28 02:00:00 15 5 Sudoeste 7 Sudoeste 0 953 1.1 57
2019-09-28 01:00:00 16.2 0 Calma 7 Sudeste 0 952.8 1.4 55
2019-09-28 00:00:00 17.7 7 Sur 15 Sur 0 952.4 1.9 49
2019-09-27 23:00:00 19.4 6 Sur 10 Sur 0 951.9 2.1 46
2019-09-27 22:00:00 21.5 0 Calma 8 Nordeste 0 951.4 2.1 39
2019-09-27 21:00:00 23.3 5 Nordeste 17 Nordeste 0 950.5 1.3 34
2019-09-27 20:00:00 25.7 14 Nordeste 23 Nordeste 0 949.8 0.4 29
2019-09-27 19:00:00 30 8 Noroeste 22 Noroeste 0 949.3 -0.6 17
2019-09-27 18:00:00 30.4 9 Oeste 22 Oeste 0 949.2 -1.4 17
2019-09-27 17:00:00 29.9 10 Sudoeste 26 Sudoeste 0 949.4 -2.1 20
2019-09-27 16:00:00 29.3 9 Oeste 26 Oeste 0 949.9 -2.2 21
2019-09-27 15:00:00 28.2 11 Oeste 23 Sudoeste 0 950.6 -2 24
2019-09-27 14:00:00 26.5 7 Sudoeste 17 Sudoeste 0 951.5 -1.6 25
2019-09-27 13:00:00 24.4 8 Sudoeste 19 Oeste 0 952.1 -0.5 29
2019-09-27 12:00:00 21.7 6 Sudoeste 10 Sudoeste 0 952.6 0.1 39
2019-09-27 11:00:00 17.6 4 Oeste 7 Oeste 0 953.1 0.8 54
2019-09-27 10:00:00 14 2 Oeste 7 Norte 0 952.6 0.7 69
2019-09-27 09:00:00 12.4 0 Calma 6 Nordeste 0 952.5 0.9 74
2019-09-27 08:00:00 12.2 3 Nordeste 6 Sur 0 952.3 0.8 73
2019-09-27 07:00:00 12.6 3 Oeste 5 Oeste 0 951.9 0.4 74
2019-09-27 06:00:00 13.2 2 Nordeste 6 Sudeste 0 951.6 0 71
2019-09-27 05:00:00 14 3 Norte 6 Sur 0 951.5 0 68
2019-09-27 04:00:00 14.9 2 Este 5 Nordeste 0 951.5 -0.1 65
2019-09-27 03:00:00 16.3 0 Calma 6 Nordeste 0 951.6 0.1 59
2019-09-27 02:00:00 17.2 5 Nordeste 6 Nordeste 0 951.5 0.4 57
2019-09-27 01:00:00 18.3 4 Este 9 Sur 0 951.6 1 54
2019-09-27 00:00:00 19.3 6 Sudoeste 8 Sudoeste 0 951.5 1.7 50
2019-09-26 23:00:00 21.3 4 Sur 12 Este 0 951.1 1.7 41
2019-09-26 22:00:00 22.6 6 Sudeste 9 Sudeste 0 950.6 1.3 35
2019-09-26 21:00:00 24.8 5 Sudoeste 11 Oeste 0 949.8 0.6 30
2019-09-26 20:00:00 27.7 9 Oeste 24 Oeste 0 949.4 -0.1 26
2019-09-26 19:00:00 29.5 16 Oeste 29 Oeste 0 949.3 -0.8 23
2019-09-26 18:00:00 29.8 14 Sudoeste 26 Oeste 0 949.2 -1.4 23
2019-09-26 17:00:00 30 11 Sudoeste 24 Oeste 0 949.5 -2.1 23
2019-09-26 16:00:00 29 11 Oeste 22 Oeste 0 950.1 -2.2 24
2019-09-26 15:00:00 27.4 6 Sudoeste 19 Oeste 0 950.6 -2.4 28
2019-09-26 14:00:00 25.2 4 Sudoeste 15 Noroeste 0 951.6 -1.7 32
2019-09-26 13:00:00 22.5 9 Oeste 15 Oeste 0 952.3 -0.8 39
2019-09-26 12:00:00 19.7 3 Noroeste 9 Oeste 0 953 0.3 47
2019-09-26 11:00:00 16.4 2 Oeste 9 Sur 0 953.3 1 59
2019-09-26 10:00:00 12.5 2 Sudoeste 7 Sur 0 953.1 1.2 75
2019-09-26 09:00:00 10.7 0 Calma 6 Sur 0 952.7 0.8 81
2019-09-26 08:00:00 10.8 2 Oeste 5 Sudeste 0 952.3 0.6 77
2019-09-26 07:00:00 11.4 3 Este 9 Sur 0 951.9 0.2 76
2019-09-26 06:00:00 11.9 3 Este 6 Sur 0 951.9 -0.1 74
2019-09-26 05:00:00 12.4 0 Calma 8 Sur 0 951.7 -0.1 71
2019-09-26 04:00:00 13.1 3 Sudeste 7 Nordeste 0 951.7 0 70
2019-09-26 03:00:00 14 3 Sur 8 Nordeste 0 952 0.4 66
2019-09-26 02:00:00 14.8 6 Nordeste 8 Nordeste 0 951.8 0.6 64
2019-09-26 01:00:00 15.8 3 Sudeste 7 Sudeste 0 951.7 0.9 60
2019-09-26 00:00:00 16.9 4 Sur 9 Sur 0 951.6 1.5 55
2019-09-25 23:00:00 17.5 6 Sur 9 Sur 0 951.2 1.8 53
2019-09-25 22:00:00 19 2 Norte 10 Noroeste 0 950.8 1.6 47
2019-09-25 21:00:00 20.1 4 Norte 20 Norte 0 950.1 1 43
2019-09-25 20:00:00 21.3 13 Oeste 25 Oeste 0 949.4 0.3 38
2019-09-25 19:00:00 22.6 14 Oeste 27 Sudoeste 0 949.2 -0.4 34
2019-09-25 18:00:00 24 15 Oeste 29 Oeste 0 949.1 -0.9 30
2019-09-25 17:00:00 24.5 12 Oeste 27 Oeste 0 949.1 -1.6 29
2019-09-25 16:00:00 23.6 13 Sudoeste 26 Oeste 0 949.6 -1.6 31
2019-09-25 15:00:00 22.8 12 Sudoeste 25 Sudoeste 0 950 -1.4 32
2019-09-25 14:00:00 22.2 13 Sudoeste 27 Sudoeste 0 950.7 -0.8 33
2019-09-25 13:00:00 20.9 12 Noroeste 27 Sudoeste 0 951.2 0.4 37
2019-09-25 12:00:00 19.5 11 Sudoeste 25 Oeste 0 951.4 0.8 44
2019-09-25 11:00:00 17.9 11 Oeste 21 Sudoeste 0 951.5 1.6 50
2019-09-25 10:00:00 16.2 9 Oeste 15 Oeste 0 950.8 1.1 57
2019-09-25 09:00:00 15.1 6 Noroeste 21 Oeste 0 950.6 1.3 65
2019-09-25 08:00:00 15.5 11 Oeste 14 Sudoeste 0 949.9 0.8 68
2019-09-25 07:00:00 16.3 7 Oeste 13 Oeste 0 949.7 0.4 65
2019-09-25 06:00:00 17.3 11 Oeste 21 Oeste 0 949.3 0.3 60
2019-09-25 05:00:00 18.3 13 Oeste 22 Sudoeste 0 949.1 0.1 60
2019-09-25 04:00:00 18.8 10 Sudoeste 17 Sudoeste 0 949.3 0.3 65
2019-09-25 03:00:00 19.2 7 Sudoeste 14 Sudoeste 0 949 -0.2 65
2019-09-25 02:00:00 19.5 4 Sudoeste 11 Sudoeste 0 949 -0.1 64
2019-09-25 01:00:00 19.6 6 Sur 13 Sudoeste 0 949 0.1 65
2019-09-25 00:00:00 20.4 7 Sudoeste 13 Sur 0 949.2 0.5 63
2019-09-24 23:00:00 20.6 5 Sur 15 Sur 0 949.1 0.8 61
2019-09-24 22:00:00 21.5 10 Sur 15 Sudoeste 0 948.9 1.1 58
2019-09-24 21:00:00 22.7 8 Sur 28 Noroeste 0 948.7 1.3 53
2019-09-24 20:00:00 24.5 14 Noroeste 27 Noroeste 0 948.3 0.3 45
2019-09-24 19:00:00 27.2 20 Noroeste 33 Oeste 0 947.8 -0.7 35
2019-09-24 18:00:00 28.7 21 Oeste 32 Oeste 0 947.4 -1.9 28
2019-09-24 17:00:00 28.6 17 Oeste 32 Oeste 0 948 -2.2 26
2019-09-24 16:00:00 27.6 20 Oeste 37 Oeste 0 948.5 -2.4 29
2019-09-24 15:00:00 27.2 14 Oeste 31 Sudoeste 0 949.3 -2.1 29
2019-09-24 14:00:00 25.9 14 Oeste 32 Oeste 0 950.2 -1.4 31
2019-09-24 13:00:00 23.9 15 Oeste 25 Sudoeste 0 950.9 -0.4 36
2019-09-24 12:00:00 22.2 6 Sudoeste 18 Sudoeste 0 951.4 0.2 43
2019-09-24 11:00:00 18.9 8 Sudoeste 16 Sudoeste 0 951.6 0.5 51
2019-09-24 10:00:00 15.6 8 Sur 13 Sur 0 951.3 0.4 62
2019-09-24 09:00:00 13.3 5 Sur 17 Sur 0 951.2 0.6 70
2019-09-24 08:00:00 12.1 4 Sur 8 Sudeste 0 951.1 0.2 78
2019-09-24 07:00:00 12.6 3 Sur 5 Norte 0 950.9 -0.2 77
2019-09-24 06:00:00 13.6 4 Sur 9 Sur 0 950.6 -0.8 71
2019-09-24 05:00:00 13.6 0 Calma 9 Sur 0 950.9 -0.8 73
2019-09-24 04:00:00 15 6 Sur 9 Sur 0 951.1 -0.9 65
2019-09-24 03:00:00 15.5 8 Sur 15 Sur 0 951.4 -0.9 64
2019-09-24 02:00:00 16.8 8 Sur 10 Sur 0 951.7 -0.5 57
2019-09-24 01:00:00 17.5 7 Sur 13 Sudoeste 0 952 0.1 55
2019-09-24 00:00:00 18.9 6 Sudoeste 15 Sudoeste 0 952.3 0.9 48
2019-09-23 23:00:00 18.9 9 Sudoeste 13 Sudoeste 0 952.2 1.2 49
2019-09-23 22:00:00 19.7 8 Sudoeste 14 Sudoeste 0 951.9 1.1 46
2019-09-23 21:00:00 21.5 7 Sur 12 Sudoeste 0 951.4 0.6 39
2019-09-23 20:00:00 23.1 6 Sudoeste 19 Oeste 0 951 -0.2 34
2019-09-23 19:00:00 24.5 13 Oeste 22 Oeste 0 950.8 -0.7 32
2019-09-23 18:00:00 25.1 10 Oeste 17 Oeste 0 950.8 -1.1 30
2019-09-23 17:00:00 23.3 7 Sudoeste 22 Oeste 0 951.2 -1.3 35
2019-09-23 16:00:00 23.3 9 Oeste 23 Oeste 0 951.5 -1.2 35
2019-09-23 15:00:00 22.9 10 Oeste 21 Oeste 0 951.9 -1.5 36
2019-09-23 14:00:00 21.8 9 Oeste 21 Oeste 0 952.5 -1.3 37
2019-09-23 13:00:00 20.4 9 Sudoeste 19 Sudoeste 0 952.7 -1 43
2019-09-23 12:00:00 18.7 5 Oeste 13 Oeste 0 953.4 0.1 53
2019-09-23 11:00:00 15.5 2 Oeste 6 Este 0 953.8 1.3 65
2019-09-23 10:00:00 12.4 4 Nordeste 10 Sur 0 953.7 1.5 75
2019-09-23 09:00:00 10.5 5 Sudeste 9 Sur 0 953.3 1.7 81
2019-09-23 08:00:00 10.3 0 Calma 6 Nordeste 0 952.5 1.5 82
2019-09-23 07:00:00 11 3 Sudeste 6 Sudeste 0 952.2 1.4 80
2019-09-23 06:00:00 11.6 5 Nordeste 6 Nordeste 0 951.6 0.8 79
2019-09-23 05:00:00 12.6 0 Calma 5 Sudeste 0 951 0.3 74
2019-09-23 04:00:00 13.7 0 Calma 3 Sudoeste 0 950.8 0.4 72
2019-09-23 03:00:00 14.4 3 Sudoeste 4 Sudoeste 0 950.8 0.6 68
2019-09-23 02:00:00 15.1 2 Este 5 Nordeste 0 950.7 1 64
2019-09-23 01:00:00 15.9 4 Sudoeste 8 Sudoeste 0 950.4 1.4 58
2019-09-23 00:00:00 16.5 5 Sudoeste 10 Sudoeste 0 950.2 2.1 56
2019-09-22 23:00:00 17.7 6 Sudoeste 9 Sudoeste 0 949.7 2.1 51
2019-09-22 22:00:00 18.9 2 Oeste 6 Oeste 0 949 2 45
2019-09-22 21:00:00 19.8 3 Sudoeste 16 Noroeste 0 948.1 1.6 40
2019-09-22 20:00:00 21.1 11 Noroeste 27 Oeste 0 947.6 1 37
2019-09-22 19:00:00 23.5 12 Oeste 31 Oeste 0 947 0 32
2019-09-22 18:00:00 23.6 13 Oeste -- -- 0 946.5 -0.5 35
2019-09-22 17:00:00 23 17 Oeste 33 Oeste 0 946.6 -0.9 41
2019-09-22 16:00:00 21.9 15 Oeste 30 Oeste 0 947 -0.9 47
2019-09-22 15:00:00 21.1 13 Noroeste 27 Oeste 0 947 -0.5 54
2019-09-22 14:00:00 19.1 11 Sudoeste 26 Sudoeste 0 947.5 0.1 68
2019-09-22 13:00:00 15.9 11 Sudoeste 25 Sudoeste 0.2 947.9 1.9 82
2019-09-22 12:00:00 15.1 6 Sudoeste 23 Oeste 1.2 947.5 2.3 88
2019-09-22 11:00:00 15.3 16 Oeste 29 Oeste 0 947.4 3 84
2019-09-22 10:00:00 18.4 17 Oeste 29 Oeste 0 946 1.9 73
2019-09-22 09:00:00 18.2 4 Sudoeste 18 Sudoeste 0 945.2 1.1 70
2019-09-22 08:00:00 18.2 10 Sur 18 Sudoeste 0 944.4 0.2 69
2019-09-22 07:00:00 19.2 6 Sur 23 Sudoeste 0 944.1 -0.2 64
2019-09-22 06:00:00 19.7 12 Sudoeste 22 Sudoeste 0 944.1 -0.4 62
2019-09-22 05:00:00 19.8 10 Sudoeste 18 Sudoeste 0 944.2 -0.3 64
2019-09-22 04:00:00 20 7 Sur 11 Sur 0 944.3 -0.3 65
2019-09-22 03:00:00 19.5 3 Oeste 8 Sur 0 944.5 -0.3 67
2019-09-22 02:00:00 19.8 4 Sudeste 12 Sur 0 944.5 -0.5 66
2019-09-22 01:00:00 20.3 6 Sur 12 Sudeste 0 944.6 -0.3 63
2019-09-22 00:00:00 21.1 3 Sudeste 7 Sudoeste 0 944.8 0.1 57
2019-09-21 23:00:00 21.3 6 Sudoeste 12 Sudoeste 0 945 0.6 56
2019-09-21 22:00:00 21.4 9 Sudoeste 18 Sudoeste 0 944.9 0.8 55
2019-09-21 21:00:00 22.1 10 Sudoeste 20 Sudoeste 0 944.7 0.7 51
2019-09-21 20:00:00 23.1 10 Sudoeste 28 Oeste 0 944.4 0.1 45
2019-09-21 19:00:00 24.3 12 Oeste 24 Oeste 0 944.1 -0.4 44
2019-09-21 18:00:00 24.4 14 Oeste 30 Sudoeste 0 944 -1.2 41
2019-09-21 17:00:00 25.6 15 Sudoeste -- -- 0 944.3 -1.4 36
2019-09-21 16:00:00 27 19 Sudoeste -- -- 0 944.5 -1.7 31
2019-09-21 15:00:00 25.4 6 Sudoeste 20 Oeste 0 945.2 -1.1 38
2019-09-21 14:00:00 24.2 10 Oeste 21 Oeste 0 945.7 -0.7 45
2019-09-21 13:00:00 23.7 8 Oeste 15 Oeste 0 946.2 -0.6 48
2019-09-21 12:00:00 21.9 6 Noroeste 11 Noroeste 0 946.3 -0.3 56
2019-09-21 11:00:00 19.9 5 Norte 11 Nordeste 0 946.4 -0.1 66
2019-09-21 10:00:00 17.3 3 Oeste 6 Oeste 0 946.8 0.2 80
2019-09-21 09:00:00 16.3 0 Calma 7 Nordeste 0 946.6 0 81
2019-09-21 08:00:00 16.1 4 Nordeste 7 Nordeste 0 946.5 -0.1 84
2019-09-21 07:00:00 16.6 3 Este 6 Este 0 946.6 -0.2 84
2019-09-21 06:00:00 17.1 4 Oeste 6 Oeste 0 946.6 -0.3 86
2019-09-21 05:00:00 17.5 3 Este 5 Este 0 946.6 -0.7 85
2019-09-21 04:00:00 17.6 3 Norte 10 Nordeste 0 946.8 -0.9 84
2019-09-21 03:00:00 18.1 7 Nordeste 13 Nordeste 0 946.9 -0.9 82
2019-09-21 02:00:00 18.4 3 Noroeste 6 Oeste 0 947.3 -0.6 80
2019-09-21 01:00:00 19.1 3 Noroeste 15 Nordeste 0 947.7 -0.4 76
2019-09-21 00:00:00 19.3 5 Nordeste 10 Norte 0 947.8 0.3 76
2019-09-20 23:00:00 18.8 3 Nordeste 10 Nordeste 0 947.9 0.5 77
2019-09-20 22:00:00 19.1 9 Nordeste 23 Nordeste 0 948.1 1.2 75
2019-09-20 21:00:00 18.9 10 Nordeste 30 Nordeste 0.4 947.5 1.2 75
2019-09-20 20:00:00 20.2 17 Nordeste 26 Nordeste 0.4 947.4 0.8 69
2019-09-20 19:00:00 21.9 5 Sudoeste 40 Oeste 0 946.9 -0.5 65
2019-09-20 18:00:00 26.4 7 Este 28 Este 0 946.3 -2.1 40
2019-09-20 17:00:00 27.4 6 Sudeste 26 Norte 0 946.6 -2.4 33
2019-09-20 16:00:00 28 11 Norte 28 Nordeste 0 947.4 -2.1 38
2019-09-20 15:00:00 27.1 10 Nordeste 25 Sudeste 0 948.4 -1.9 42
2019-09-20 14:00:00 26.6 17 Sur 28 Sudeste 0 949 -1.8 37
2019-09-20 13:00:00 25.4 5 Sur 17 Sur 0 949.5 -1.4 46
2019-09-20 12:00:00 21.8 3 Noroeste 8 Oeste 0 950.3 -0.1 63
2019-09-20 11:00:00 18.5 0 Calma 6 Oeste 0 950.8 0.8 74
2019-09-20 10:00:00 16.1 3 Noroeste 6 Oeste 0 950.9 1.1 84
2019-09-20 09:00:00 14.5 4 Nordeste 6 Nordeste 0 950.4 0.5 88
2019-09-20 08:00:00 14 3 Sudoeste 5 Sudoeste 0 950 -0.4 87
2019-09-20 07:00:00 14.4 0 Calma 6 Sudoeste 0 949.8 -0.5 87
2019-09-20 06:00:00 14.5 3 Norte 6 Nordeste 0 949.9 -0.6 86
2019-09-20 05:00:00 15.3 2 Sudeste 9 Sur 0 950.4 0 84
2019-09-20 04:00:00 15.9 3 Sudoeste 7 Sudoeste 0 950.3 0 83
2019-09-20 03:00:00 16.6 3 Sur 6 Sur 0 950.5 0.1 80
2019-09-20 02:00:00 17.6 4 Este 6 Este 0 950.4 0.1 77
2019-09-20 01:00:00 18.6 4 Sudoeste 7 Sur 0 950.3 0.2 72
2019-09-20 00:00:00 19.5 4 Sur 14 Este 0 950.4 1.7 67
2019-09-19 23:00:00 20.7 5 Este 11 Este 0 950.3 2 63
2019-09-19 22:00:00 21.2 3 Oeste 18 Sur 0.2 950.1 2.1 64
2019-09-19 21:00:00 23.8 9 Este 21 Nordeste 0 948.7 0.8 56
2019-09-19 20:00:00 24.8 12 Nordeste 22 Nordeste 0 948.3 0.2 47
2019-09-19 19:00:00 26.6 14 Nordeste 26 Este 0 948 -0.6 41
2019-09-19 18:00:00 28.2 11 Nordeste 20 Este 0 947.9 -1.5 35
2019-09-19 17:00:00 28.3 12 Nordeste 21 Nordeste 0 948.1 -2 33
2019-09-19 16:00:00 27.9 13 Norte 24 Nordeste 0 948.6 -2.1 37
2019-09-19 15:00:00 26.8 9 Norte 18 Nordeste 0 949.4 -1.9 40
2019-09-19 14:00:00 25.4 7 Norte 15 Norte 0 950.1 -1.4 48
2019-09-19 13:00:00 23.4 6 Nordeste 14 Nordeste 0 950.7 -0.7 55
2019-09-19 12:00:00 20.8 5 Norte 9 Nordeste 0 951.3 0.3 65
2019-09-19 11:00:00 17.9 2 Noroeste 5 Sudoeste 0 951.5 0.6 74
2019-09-19 10:00:00 14.8 2 Oeste 4 Oeste 0 951.4 0.8 84
2019-09-19 09:00:00 13.7 2 Oeste 5 Nordeste 0 951 0.6 86
2019-09-19 08:00:00 13.3 2 Oeste 5 Sudoeste 0 950.9 0.5 86
2019-09-19 07:00:00 13.7 4 Nordeste 6 Norte 0 950.6 0 84
2019-09-19 06:00:00 13.6 5 Sur 7 Sur 0 950.4 -0.3 83
2019-09-19 05:00:00 14.3 0 Calma 4 Sudeste 0 950.4 -0.2 81
2019-09-19 04:00:00 15.1 3 Sudeste 10 Sur 0 950.6 0 79
2019-09-19 03:00:00 16 7 Sur 10 Sur 0 950.7 0.2 72
2019-09-19 02:00:00 16.6 4 Este 17 Sur 0 950.6 0.3 76
2019-09-19 01:00:00 17.5 9 Sur 14 Sur 0 950.6 0.5 70
2019-09-19 00:00:00 18 7 Sur 10 Sur 0 950.5 0.8 72
2019-09-18 23:00:00 18.3 4 Este 10 Sur 0 950.3 1.2 73
2019-09-18 22:00:00 19.7 5 Oeste 8 Sudoeste 0 950.1 1.2 70
2019-09-18 21:00:00 21.3 4 Este 6 Sudeste 0 949.7 0.9 61
2019-09-18 20:00:00 23.2 3 Este 8 Este 0 949.1 -0.1 51
2019-09-18 19:00:00 23.6 6 Nordeste 12 Nordeste 0 948.9 -0.9 51
2019-09-18 18:00:00 23.8 4 Norte 8 Noroeste 0 948.8 -1.5 52
2019-09-18 17:00:00 21.4 3 Nordeste 8 Oeste 0 949.2 -1.4 60
2019-09-18 16:00:00 20.8 3 Sudoeste 10 Este 0 949.8 -1 64
2019-09-18 15:00:00 19.6 3 Noroeste 12 Sudoeste 0 950.3 -0.8 68
2019-09-18 14:00:00 18.9 3 Sur 8 Noroeste 0 950.6 -0.2 72
2019-09-18 13:00:00 18.2 3 Norte 8 Oeste 0 950.8 0.4 75
2019-09-18 12:00:00 16.6 3 Oeste 10 Sudoeste 0 951.1 1 81
2019-09-18 11:00:00 16.3 2 Sudeste 9 Sudoeste 0 950.8 1.3 82
2019-09-18 10:00:00 14.9 3 Sur 6 Sudeste 0 950.4 1.2 85
2019-09-18 09:00:00 14.1 3 Sur 10 Sudoeste 0 950.1 1 87
2019-09-18 08:00:00 13.6 5 Sur 9 Sur 0 949.5 0.5 88
2019-09-18 07:00:00 14.2 4 Este 7 Nordeste 0 949.2 0.1 87
2019-09-18 06:00:00 14.9 5 Norte 10 Sur 0 949.1 -0.4 86
2019-09-18 05:00:00 16.1 7 Sur 10 Sur 0 949 -0.4 81
2019-09-18 04:00:00 16.6 6 Sur 14 Sudoeste 0 949.1 -0.8 79
2019-09-18 03:00:00 16.9 9 Sur 19 Sur 0 949.5 -1.3 80
2019-09-18 02:00:00 16.9 11 Sur 19 Nordeste 0.2 949.4 -1 85
2019-09-18 01:00:00 17.6 4 Sudoeste 15 Este 2.2 949.9 1.6 81
2019-09-18 00:00:00 18.4 9 Sudoeste 20 Oeste 3 950.8 3.7 73
2019-09-17 23:00:00 21.1 12 Sudoeste 49 Sudoeste 0 950.4 3.4 53
2019-09-17 22:00:00 24.5 6 Sudeste 17 Nordeste 0 948.3 1.5 44
2019-09-17 21:00:00 25.6 10 Nordeste 16 Nordeste 0 947.1 -0.2 42